createdAt,value
2018-09-09T00:00:16.258Z,16.50
2018-09-09T00:02:47.808Z,16.40
2018-09-09T00:05:19.277Z,16.40
2018-09-09T00:07:51.295Z,16.40
2018-09-09T00:10:22.876Z,16.40
2018-09-09T00:12:54.999Z,16.40
2018-09-09T00:15:26.350Z,16.30
2018-09-09T00:17:57.537Z,16.30
2018-09-09T00:20:28.835Z,16.30
2018-09-09T00:23:00.652Z,16.30
2018-09-09T00:25:32.051Z,16.30
2018-09-09T00:28:03.800Z,16.30
2018-09-09T00:30:35.497Z,16.20
2018-09-09T00:33:07.332Z,16.20
2018-09-09T00:35:39.041Z,16.20
2018-09-09T00:38:10.730Z,16.10
2018-09-09T00:40:42.205Z,16.10
2018-09-09T00:43:13.848Z,16.10
2018-09-09T00:45:45.480Z,16.10
2018-09-09T00:48:16.894Z,16.10
2018-09-09T00:50:53.076Z,16.10
2018-09-09T00:53:29.359Z,16.10
2018-09-09T00:56:00.594Z,16.10
2018-09-09T00:58:32.148Z,16.00
2018-09-09T01:01:08.160Z,16.00
2018-09-09T01:03:39.773Z,16.00
2018-09-09T01:06:11.052Z,16.00
2018-09-09T01:08:42.411Z,16.00
2018-09-09T01:11:13.764Z,16.00
2018-09-09T01:13:45.165Z,16.00
2018-09-09T01:16:16.533Z,16.00
2018-09-09T01:18:48.053Z,16.00
2018-09-09T01:21:19.709Z,16.00
2018-09-09T01:23:51.217Z,16.00
2018-09-09T01:26:22.474Z,16.00
2018-09-09T01:28:53.851Z,16.00
2018-09-09T01:31:24.634Z,16.00
2018-09-09T01:33:55.391Z,16.00
2018-09-09T01:36:30.429Z,15.90
2018-09-09T01:39:01.014Z,15.90
2018-09-09T01:41:32.303Z,15.90
2018-09-09T01:44:03.233Z,15.80
2018-09-09T01:46:35.496Z,15.80
2018-09-09T01:49:06.429Z,15.80
2018-09-09T01:51:37.780Z,15.80
2018-09-09T01:54:08.946Z,15.80
2018-09-09T01:56:49.539Z,15.80
2018-09-09T01:59:20.801Z,15.80
2018-09-09T02:01:51.637Z,16.00
2018-09-09T02:04:22.611Z,15.90
2018-09-09T02:06:53.381Z,15.90
2018-09-09T02:09:24.251Z,15.90
2018-09-09T02:11:55.151Z,15.80
2018-09-09T02:14:26.133Z,15.90
2018-09-09T02:16:57.060Z,15.80
2018-09-09T02:19:28.170Z,15.80
2018-09-09T02:21:59.009Z,15.80
2018-09-09T02:24:30.238Z,15.80
2018-09-09T02:27:01.059Z,15.80
2018-09-09T02:29:31.953Z,15.80
2018-09-09T02:32:02.751Z,15.70
2018-09-09T02:34:33.618Z,15.70
2018-09-09T02:37:04.473Z,15.70
2018-09-09T02:39:35.313Z,15.70
2018-09-09T02:42:06.112Z,15.70
2018-09-09T02:44:37.018Z,15.70
2018-09-09T02:47:07.906Z,15.70
2018-09-09T02:49:39.051Z,15.70
2018-09-09T02:52:09.909Z,15.60
2018-09-09T02:54:40.886Z,15.60
2018-09-09T02:57:11.883Z,15.60
2018-09-09T02:59:42.862Z,15.60
2018-09-09T03:02:13.764Z,15.60
2018-09-09T03:04:44.735Z,15.50
2018-09-09T03:07:15.622Z,15.50
2018-09-09T03:09:46.636Z,15.50
2018-09-09T03:12:17.369Z,15.50
2018-09-09T03:14:48.796Z,15.50
2018-09-09T03:17:19.709Z,15.40
2018-09-09T03:19:50.541Z,15.40
2018-09-09T03:22:21.405Z,15.40
2018-09-09T03:24:52.306Z,15.40
2018-09-09T03:27:23.085Z,15.40
2018-09-09T03:29:53.910Z,15.40
2018-09-09T03:32:24.763Z,15.40
2018-09-09T03:34:56.263Z,15.30
2018-09-09T03:37:27.128Z,15.40
2018-09-09T03:39:57.978Z,15.40
2018-09-09T03:42:28.751Z,15.40
2018-09-09T03:44:59.612Z,15.40
2018-09-09T03:47:30.534Z,15.40
2018-09-09T03:50:01.836Z,15.40
2018-09-09T03:52:32.814Z,15.40
2018-09-09T03:55:03.701Z,15.40
2018-09-09T03:57:34.646Z,15.40
2018-09-09T04:00:05.511Z,15.40
2018-09-09T04:02:36.345Z,15.40
2018-09-09T04:05:07.426Z,15.40
2018-09-09T04:07:38.370Z,15.40
2018-09-09T04:10:09.564Z,15.40
2018-09-09T04:12:40.511Z,15.40
2018-09-09T04:15:11.350Z,15.40
2018-09-09T04:17:42.207Z,15.40
2018-09-09T04:20:13.066Z,15.40
2018-09-09T04:22:43.839Z,15.40
2018-09-09T04:25:14.866Z,15.40
2018-09-09T04:27:45.675Z,15.40
2018-09-09T04:30:16.911Z,15.30
2018-09-09T04:32:47.764Z,15.30
2018-09-09T04:35:18.635Z,15.30
2018-09-09T04:37:49.451Z,15.30
2018-09-09T04:40:20.281Z,15.20
2018-09-09T04:42:51.267Z,15.20
2018-09-09T04:45:22.365Z,15.20
2018-09-09T04:47:53.215Z,15.20
2018-09-09T04:50:24.071Z,15.20
2018-09-09T04:52:54.934Z,15.10
2018-09-09T04:55:25.772Z,15.10
2018-09-09T04:57:56.714Z,15.10
2018-09-09T05:00:27.725Z,15.10
2018-09-09T05:02:58.773Z,15.10
2018-09-09T05:05:30.027Z,15.10
2018-09-09T05:08:00.911Z,15.10
2018-09-09T05:10:32.195Z,15.10
2018-09-09T05:13:03.106Z,15.10
2018-09-09T05:15:34.063Z,15.10
2018-09-09T05:18:04.911Z,15.10
2018-09-09T05:20:35.862Z,15.10
2018-09-09T05:23:06.773Z,15.10
2018-09-09T05:25:37.758Z,15.10
2018-09-09T05:28:08.664Z,15.10
2018-09-09T05:30:43.103Z,15.10
2018-09-09T05:33:14.129Z,15.10
2018-09-09T05:35:45.277Z,15.10
2018-09-09T05:38:16.305Z,15.10
2018-09-09T05:40:47.443Z,15.10
2018-09-09T05:43:18.556Z,15.10
2018-09-09T05:45:49.673Z,15.10
2018-09-09T05:48:20.728Z,15.10
2018-09-09T05:50:51.746Z,15.10
2018-09-09T05:53:22.721Z,15.10
2018-09-09T05:55:53.783Z,15.10
2018-09-09T05:58:24.786Z,15.10
2018-09-09T06:00:56.002Z,15.10
2018-09-09T06:03:26.961Z,15.10
2018-09-09T06:05:58.165Z,15.10
2018-09-09T06:08:29.191Z,15.20
2018-09-09T06:11:00.293Z,15.20
2018-09-09T06:13:31.396Z,15.20
2018-09-09T06:16:02.692Z,15.20
2018-09-09T06:18:33.654Z,15.20
2018-09-09T06:21:04.894Z,15.20
2018-09-09T06:23:35.838Z,15.20
2018-09-09T06:26:06.818Z,15.30
2018-09-09T06:28:37.803Z,15.30
2018-09-09T06:31:08.981Z,15.30
2018-09-09T06:33:40.170Z,15.30
2018-09-09T06:36:11.299Z,15.30
2018-09-09T06:38:42.399Z,15.40
2018-09-09T06:41:13.801Z,15.40
2018-09-09T06:43:44.780Z,15.50
2018-09-09T06:46:15.678Z,15.50
2018-09-09T06:48:46.893Z,15.60
2018-09-09T06:51:17.866Z,15.60
2018-09-09T06:53:48.766Z,15.60
2018-09-09T06:56:19.942Z,15.70
2018-09-09T06:58:50.949Z,15.80
2018-09-09T07:01:21.963Z,15.80
2018-09-09T07:03:53.095Z,15.90
2018-09-09T07:06:24.448Z,16.00
2018-09-09T07:08:55.521Z,16.10
2018-09-09T07:11:26.822Z,16.10
2018-09-09T07:13:57.931Z,16.20
2018-09-09T07:16:29.044Z,16.30
2018-09-09T07:19:00.403Z,16.40
2018-09-09T07:21:32.037Z,16.50
2018-09-09T07:24:03.203Z,16.70
2018-09-09T07:26:39.697Z,16.80
2018-09-09T07:29:10.954Z,16.90
2018-09-09T07:31:42.042Z,17.00
2018-09-09T07:34:13.226Z,17.10
2018-09-09T07:36:44.286Z,17.20
2018-09-09T07:39:15.162Z,17.20
2018-09-09T07:41:47.805Z,17.30
2018-09-09T07:44:19.325Z,17.40
2018-09-09T07:46:50.558Z,17.40
2018-09-09T07:49:21.451Z,17.50
2018-09-09T07:51:52.532Z,17.50
2018-09-09T07:54:23.438Z,17.60
2018-09-09T07:56:54.763Z,17.60
2018-09-09T07:59:25.761Z,17.60
2018-09-09T08:01:56.878Z,17.70
2018-09-09T08:04:27.961Z,17.70
2018-09-09T08:06:59.248Z,17.70
2018-09-09T08:09:30.432Z,17.70
2018-09-09T08:12:01.692Z,17.80
2018-09-09T08:14:32.708Z,17.80
2018-09-09T08:17:03.845Z,17.90
2018-09-09T08:19:35.077Z,17.90
2018-09-09T08:22:06.409Z,17.90
2018-09-09T08:24:37.857Z,18.00
2018-09-09T08:27:08.408Z,18.00
2018-09-09T08:29:38.866Z,18.10
2018-09-09T08:32:09.481Z,18.10
2018-09-09T08:34:39.976Z,18.10
2018-09-09T08:37:10.858Z,18.20
2018-09-09T08:39:41.454Z,18.20
2018-09-09T08:42:11.854Z,18.20
2018-09-09T08:44:42.523Z,18.30
2018-09-09T08:47:13.069Z,18.30
2018-09-09T08:49:43.589Z,18.40
2018-09-09T08:52:14.123Z,18.40
2018-09-09T08:54:44.656Z,18.50
2018-09-09T08:57:18.760Z,18.60
2018-09-09T08:59:51.891Z,18.60
2018-09-09T09:02:25.435Z,18.70
2018-09-09T09:04:56.116Z,18.70
2018-09-09T09:07:26.757Z,18.80
2018-09-09T09:09:57.264Z,18.80
2018-09-09T09:12:27.758Z,18.90
2018-09-09T09:14:58.228Z,18.90
2018-09-09T09:17:28.810Z,19.00
2018-09-09T09:19:59.839Z,19.10
2018-09-09T09:22:30.340Z,19.10
2018-09-09T09:25:00.962Z,19.10
2018-09-09T09:27:31.560Z,19.20
2018-09-09T09:30:02.094Z,19.30
2018-09-09T09:32:32.745Z,19.30
2018-09-09T09:35:03.325Z,19.40
2018-09-09T09:37:33.820Z,19.40
2018-09-09T09:40:04.401Z,19.50
2018-09-09T09:42:35.004Z,19.60
2018-09-09T09:45:05.600Z,19.70
2018-09-09T09:47:36.155Z,19.80
2018-09-09T09:50:06.786Z,19.90
2018-09-09T09:52:37.464Z,20.00
2018-09-09T09:55:08.149Z,20.20
2018-09-09T09:57:39.517Z,20.30
2018-09-09T10:00:14.142Z,20.40
2018-09-09T10:02:44.804Z,20.50
2018-09-09T10:05:15.299Z,20.50
2018-09-09T10:07:45.808Z,20.60
2018-09-09T10:10:16.365Z,20.70
2018-09-09T10:12:46.963Z,20.70
2018-09-09T10:15:17.537Z,20.80
2018-09-09T10:17:48.064Z,20.90
2018-09-09T10:20:18.589Z,20.90
2018-09-09T10:22:49.226Z,21.00
2018-09-09T10:25:19.765Z,21.00
2018-09-09T10:27:50.298Z,21.10
2018-09-09T10:30:20.767Z,21.10
2018-09-09T10:32:51.338Z,21.20
2018-09-09T10:35:21.949Z,21.30
2018-09-09T10:37:52.511Z,21.30
2018-09-09T10:40:23.140Z,21.40
2018-09-09T10:42:53.779Z,21.40
2018-09-09T10:45:24.213Z,21.50
2018-09-09T10:47:55.102Z,21.60
2018-09-09T10:50:25.616Z,21.70
2018-09-09T10:52:56.186Z,21.80
2018-09-09T10:55:26.666Z,21.90
2018-09-09T10:57:57.326Z,22.00
2018-09-09T11:00:27.816Z,22.00
2018-09-09T11:02:58.530Z,22.10
2018-09-09T11:05:29.052Z,22.20
2018-09-09T11:07:59.689Z,22.20
2018-09-09T11:10:30.336Z,22.20
2018-09-09T11:13:01.153Z,22.20
2018-09-09T11:15:47.460Z,22.30
2018-09-09T11:18:38.129Z,22.30
2018-09-09T11:21:09.023Z,22.40
2018-09-09T11:23:39.709Z,22.40
2018-09-09T11:26:10.303Z,22.50
2018-09-09T11:28:40.877Z,22.70
2018-09-09T11:31:11.469Z,22.70
2018-09-09T12:03:48.969Z,24.00
2018-09-09T12:06:19.725Z,24.10
2018-09-09T12:12:56.703Z,24.30
2018-09-09T12:39:59.959Z,25.10
2018-09-09T12:46:37.817Z,25.20
2018-09-09T13:59:24.223Z,25.40
2018-09-09T14:02:00.249Z,25.70
2018-09-09T14:04:33.277Z,25.80
2018-09-09T14:07:07.517Z,25.90
2018-09-09T14:09:39.506Z,25.90
2018-09-09T14:12:14.918Z,25.90
2018-09-09T14:14:49.778Z,26.00
2018-09-09T14:17:21.539Z,25.90
2018-09-09T14:19:52.951Z,25.90
2018-09-09T14:22:24.799Z,25.90
2018-09-09T14:24:56.718Z,26.00
2018-09-09T14:27:28.674Z,26.00
2018-09-09T14:29:59.938Z,25.90
2018-09-09T14:32:32.327Z,25.90
2018-09-09T14:35:03.564Z,25.90
2018-09-09T14:37:34.018Z,25.80
2018-09-09T14:40:04.700Z,25.70
2018-09-09T14:42:35.231Z,25.60
2018-09-09T14:45:05.989Z,25.60
2018-09-09T14:47:36.517Z,25.60
2018-09-09T14:50:07.311Z,25.50
2018-09-09T14:52:38.359Z,25.40
2018-09-09T14:55:09.081Z,25.40
2018-09-09T14:57:40.141Z,25.30
2018-09-09T15:00:12.497Z,25.30
2018-09-09T15:02:44.674Z,25.30
2018-09-09T15:05:16.043Z,25.30
2018-09-09T15:07:47.170Z,25.20
2018-09-09T15:10:18.461Z,25.20
2018-09-09T15:12:49.985Z,25.20
2018-09-09T15:15:20.605Z,25.20
2018-09-09T15:17:51.116Z,25.30
2018-09-09T15:20:21.764Z,25.30
2018-09-09T15:22:52.280Z,25.20
2018-09-09T15:25:26.599Z,25.20
2018-09-09T15:27:57.784Z,25.20
2018-09-09T15:30:28.850Z,25.20
2018-09-09T15:32:59.817Z,25.30
2018-09-09T15:35:30.869Z,25.30
2018-09-09T15:38:01.845Z,25.30
2018-09-09T15:40:33.109Z,25.20
2018-09-09T15:43:04.188Z,25.20
2018-09-09T15:45:35.335Z,25.20
2018-09-09T15:48:06.369Z,25.20
2018-09-09T15:50:37.476Z,25.20
2018-09-09T15:53:08.505Z,25.20
2018-09-09T15:55:39.574Z,25.20
2018-09-09T15:58:10.711Z,25.20
2018-09-09T16:00:41.814Z,25.30
2018-09-09T16:03:12.787Z,25.30
2018-09-09T16:05:43.859Z,25.30
2018-09-09T16:08:14.807Z,25.20
2018-09-09T16:10:45.938Z,25.20
2018-09-09T16:13:17.177Z,25.20
2018-09-09T16:15:48.653Z,25.20
2018-09-09T16:18:20.053Z,25.20
2018-09-09T16:20:51.032Z,25.20
2018-09-09T16:23:22.131Z,25.20
2018-09-09T16:25:53.303Z,25.20
2018-09-09T16:28:27.365Z,25.20
2018-09-09T16:30:58.552Z,25.20
2018-09-09T16:33:29.504Z,25.20
2018-09-09T16:36:00.375Z,25.20
2018-09-09T16:38:31.182Z,25.20
2018-09-09T16:41:02.237Z,25.10
2018-09-09T16:43:33.015Z,25.00
2018-09-09T16:46:03.836Z,25.00
2018-09-09T16:48:34.559Z,24.80
2018-09-09T16:51:05.289Z,24.80
2018-09-09T16:53:35.959Z,24.70
2018-09-09T16:56:07.060Z,24.70
2018-09-09T16:58:37.849Z,24.70
2018-09-09T17:01:08.750Z,24.60
2018-09-09T17:03:39.503Z,24.60
2018-09-09T17:06:10.189Z,24.60
2018-09-09T17:08:40.827Z,24.60
2018-09-09T17:11:11.523Z,24.60
2018-09-09T17:13:42.256Z,24.60
2018-09-09T17:16:12.986Z,24.50
2018-09-09T17:18:43.817Z,24.50
2018-09-09T17:21:14.660Z,24.50
2018-09-09T17:23:45.303Z,24.50
2018-09-09T17:26:19.697Z,24.40
2018-09-09T17:28:50.842Z,24.40
2018-09-09T17:31:24.836Z,24.30
2018-09-09T17:34:03.816Z,24.20
2018-09-09T17:36:40.671Z,24.20
2018-09-09T17:39:12.381Z,24.10
2018-09-09T17:41:43.500Z,24.00
2018-09-09T17:44:14.055Z,24.00
2018-09-09T17:46:45.316Z,23.90
2018-09-09T17:49:16.032Z,23.80
2018-09-09T17:51:51.288Z,23.80
2018-09-09T17:54:24.125Z,23.70
2018-09-09T17:56:55.264Z,23.60
2018-09-09T17:59:25.917Z,23.50
2018-09-09T18:01:56.658Z,23.50
2018-09-09T18:04:27.571Z,23.50
2018-09-09T18:06:58.541Z,23.40
2018-09-09T18:09:29.308Z,23.30
2018-09-09T18:12:00.084Z,23.30
2018-09-09T18:14:30.957Z,23.20
2018-09-09T18:17:01.811Z,23.20
2018-09-09T18:19:32.567Z,23.10
2018-09-09T18:22:03.326Z,23.10
2018-09-09T18:24:34.049Z,23.00
2018-09-09T18:27:05.281Z,22.90
2018-09-09T18:29:36.288Z,22.90
2018-09-09T18:32:07.352Z,22.80
2018-09-09T18:34:38.188Z,22.80
2018-09-09T18:37:09.128Z,22.80
2018-09-09T18:39:40.041Z,22.70
2018-09-09T18:42:11.154Z,22.70
2018-09-09T18:44:42.097Z,22.60
2018-09-09T18:47:13.048Z,22.50
2018-09-09T18:49:44.111Z,22.40
2018-09-09T18:52:15.000Z,22.30
2018-09-09T18:54:45.779Z,22.20
2018-09-09T18:57:32.321Z,22.10
2018-09-09T19:00:03.409Z,22.00
2018-09-09T19:02:34.563Z,21.90
2018-09-09T19:05:05.627Z,21.90
2018-09-09T19:12:37.961Z,21.80
2018-09-09T19:15:09.112Z,21.70
2018-09-09T19:17:40.106Z,21.60
2018-09-09T19:20:11.202Z,21.60
2018-09-09T19:22:42.190Z,21.60
2018-09-09T19:25:13.288Z,21.50
2018-09-09T19:27:44.171Z,21.50
2018-09-09T19:30:15.136Z,21.50
2018-09-09T19:32:46.046Z,21.40
2018-09-09T19:35:17.082Z,21.40
2018-09-09T19:37:47.977Z,21.30
2018-09-09T19:40:18.948Z,21.30
2018-09-09T19:42:49.795Z,21.20
2018-09-09T19:45:20.786Z,21.20
2018-09-09T19:47:51.759Z,21.10
2018-09-09T19:50:22.780Z,21.00
2018-09-09T19:52:53.626Z,21.00
2018-09-09T19:55:24.533Z,20.90
2018-09-09T19:57:55.529Z,20.90
2018-09-09T20:00:26.509Z,20.80
2018-09-09T20:02:57.478Z,20.80
